createdAt,value
2019-05-03T00:02:28.995Z,3.90
2019-05-03T00:05:32.454Z,2.00
2019-05-03T00:08:08.061Z,2.87
2019-05-03T00:10:42.520Z,4.28
2019-05-03T00:13:15.447Z,2.85
2019-05-03T00:16:09.892Z,4.25
2019-05-03T00:18:42.937Z,2.50
2019-05-03T00:21:15.845Z,2.98
2019-05-03T00:23:48.388Z,3.02
2019-05-03T00:26:22.564Z,2.62
2019-05-03T00:28:56.083Z,3.08
2019-05-03T00:31:28.406Z,3.47
2019-05-03T00:34:05.374Z,3.37
2019-05-03T00:36:52.499Z,4.00
2019-05-03T00:39:38.783Z,3.98
2019-05-03T00:42:11.949Z,2.92
2019-05-03T00:44:44.550Z,3.17
2019-05-03T00:47:16.929Z,2.98
2019-05-03T00:49:49.534Z,3.45
2019-05-03T00:52:22.466Z,2.83
2019-05-03T00:54:55.520Z,4.17
2019-05-03T00:57:32.100Z,1.80
2019-05-03T01:00:04.771Z,2.27
2019-05-03T01:02:37.676Z,2.60
2019-05-03T01:05:11.990Z,3.58
2019-05-03T01:07:44.724Z,1.87
2019-05-03T01:10:17.528Z,1.72
2019-05-03T01:12:52.141Z,2.55
2019-05-03T01:15:31.982Z,2.02
2019-05-03T01:18:07.894Z,1.50
2019-05-03T01:20:42.633Z,1.87
2019-05-03T01:23:15.089Z,1.52
2019-05-03T01:25:48.954Z,4.12
2019-05-03T01:28:21.866Z,3.40
2019-05-03T01:30:55.309Z,2.80
2019-05-03T01:33:27.853Z,2.20
2019-05-03T01:36:02.511Z,1.82
2019-05-03T01:38:34.863Z,2.60
2019-05-03T01:41:07.477Z,1.47
2019-05-03T01:43:41.503Z,1.67
2019-05-03T01:46:14.261Z,1.85
2019-05-03T01:49:12.309Z,1.92
2019-05-03T01:52:03.643Z,2.60
2019-05-03T01:54:36.503Z,2.87
2019-05-03T01:57:09.073Z,2.65
2019-05-03T01:59:42.604Z,1.82
2019-05-03T02:02:41.972Z,2.90
2019-05-03T02:05:42.944Z,2.47
2019-05-03T02:08:15.755Z,3.60
2019-05-03T02:10:48.244Z,2.58
2019-05-03T02:13:42.663Z,3.10
2019-05-03T02:16:15.516Z,2.15
2019-05-03T02:18:48.392Z,2.87
2019-05-03T02:21:21.666Z,2.40
2019-05-03T02:23:54.278Z,3.67
2019-05-03T02:26:26.811Z,1.98
2019-05-03T02:28:59.598Z,3.08
2019-05-03T02:31:33.959Z,3.17
2019-05-03T02:34:06.833Z,3.58
2019-05-03T02:36:42.539Z,2.55
2019-05-03T02:39:15.855Z,3.33
2019-05-03T02:41:51.795Z,2.72
2019-05-03T02:44:26.685Z,4.65
2019-05-03T02:47:15.764Z,5.53
2019-05-03T02:49:51.878Z,4.25
2019-05-03T02:52:37.679Z,3.42
2019-05-03T02:55:15.643Z,2.90
2019-05-03T02:57:46.934Z,3.40
2019-05-03T03:00:25.500Z,2.52
2019-05-03T03:02:57.739Z,2.47
2019-05-03T03:05:30.941Z,2.30
2019-05-03T03:08:06.034Z,1.82
2019-05-03T03:10:39.302Z,2.08
2019-05-03T03:13:16.315Z,5.93
2019-05-03T03:15:51.521Z,2.87
2019-05-03T03:18:25.677Z,3.17
2019-05-03T03:21:01.484Z,4.87
2019-05-03T03:23:41.506Z,4.67
2019-05-03T03:26:33.358Z,4.20
2019-05-03T03:28:57.257Z,3.77
2019-05-03T03:31:59.555Z,4.72
2019-05-03T03:34:39.136Z,4.20
2019-05-03T03:37:15.352Z,3.27
2019-05-03T03:39:48.267Z,3.87
2019-05-03T03:42:25.137Z,2.90
2019-05-03T03:44:57.998Z,3.47
2019-05-03T03:47:35.802Z,4.62
2019-05-03T03:50:09.236Z,2.50
2019-05-03T03:52:45.156Z,3.75
2019-05-03T03:55:17.805Z,4.57
2019-05-03T03:57:50.234Z,4.30
2019-05-03T04:00:25.510Z,3.00
2019-05-03T04:02:57.278Z,5.75
2019-05-03T04:05:29.752Z,4.65
2019-05-03T04:08:05.383Z,5.22
2019-05-03T04:10:37.911Z,3.42
2019-05-03T04:13:12.752Z,3.60
2019-05-03T04:16:09.895Z,3.40
2019-05-03T04:19:05.829Z,4.17
2019-05-03T04:21:37.834Z,6.20
2019-05-03T04:24:10.995Z,5.37
2019-05-03T04:26:45.355Z,4.95
2019-05-03T04:29:18.009Z,4.28
2019-05-03T04:31:50.929Z,4.17
2019-05-03T04:34:26.137Z,3.95
2019-05-03T04:36:58.190Z,4.15
2019-05-03T04:39:30.772Z,4.10
2019-05-03T04:42:06.292Z,3.25
2019-05-03T04:44:37.721Z,2.75
2019-05-03T04:47:10.244Z,2.72
2019-05-03T04:49:45.981Z,5.65
2019-05-03T04:52:17.133Z,3.40
2019-05-03T04:54:56.265Z,2.80
2019-05-03T04:57:39.762Z,3.08
2019-05-03T05:00:05.633Z,3.98
2019-05-03T05:02:39.069Z,3.95
2019-05-03T05:05:12.199Z,3.02
2019-05-03T05:07:45.701Z,6.17
2019-05-03T05:10:18.932Z,2.62
2019-05-03T05:12:52.011Z,3.98
2019-05-03T05:15:26.370Z,3.83
2019-05-03T05:18:15.739Z,3.85
2019-05-03T05:20:52.677Z,2.30
2019-05-03T05:23:25.389Z,2.85
2019-05-03T05:26:08.558Z,1.67
2019-05-03T05:28:51.725Z,2.90
2019-05-03T05:31:25.481Z,1.52
2019-05-03T05:33:58.491Z,1.98
2019-05-03T05:36:31.495Z,2.00
2019-05-03T05:39:05.223Z,3.62
2019-05-03T05:41:37.941Z,3.92
2019-05-03T05:44:10.684Z,2.12
2019-05-03T05:47:01.917Z,2.87
2019-05-03T05:49:51.176Z,3.95
2019-05-03T05:52:25.957Z,4.20
2019-05-03T05:55:26.904Z,1.52
2019-05-03T05:58:08.017Z,2.90
2019-05-03T06:00:45.767Z,1.40
2019-05-03T06:03:18.322Z,4.12
2019-05-03T06:05:51.116Z,1.95
2019-05-03T06:08:35.429Z,1.42
2019-05-03T06:11:17.696Z,1.60
2019-05-03T06:14:05.039Z,3.55
2019-05-03T06:16:45.145Z,1.47
2019-05-03T06:19:51.515Z,3.22
2019-05-03T06:22:31.563Z,1.62
2019-05-03T06:25:17.848Z,2.08
2019-05-03T06:27:50.490Z,3.30
2019-05-03T06:30:45.712Z,2.02
2019-05-03T06:33:18.739Z,3.50
2019-05-03T06:35:51.297Z,2.80
2019-05-03T06:38:24.452Z,2.67
2019-05-03T06:40:57.571Z,2.90
2019-05-03T06:43:30.561Z,7.05
2019-05-03T06:46:05.285Z,2.87
2019-05-03T06:48:40.525Z,2.65
2019-05-03T06:51:19.177Z,1.90
2019-05-03T06:53:50.627Z,2.12
2019-05-03T06:56:24.997Z,2.90
2019-05-03T06:58:56.601Z,3.65
2019-05-03T07:01:35.411Z,2.80
2019-05-03T07:04:19.155Z,2.90
2019-05-03T07:07:13.241Z,1.25
2019-05-03T07:09:55.743Z,2.27
2019-05-03T07:12:31.320Z,2.58
2019-05-03T07:15:05.794Z,2.15
2019-05-03T07:17:38.994Z,2.42
2019-05-03T07:20:11.516Z,2.52
2019-05-03T07:22:44.464Z,3.40
2019-05-03T07:25:16.914Z,2.20
2019-05-03T07:27:49.826Z,1.40
2019-05-03T07:30:24.594Z,2.55
2019-05-03T07:33:02.019Z,1.00
2019-05-03T07:35:35.339Z,2.35
2019-05-03T07:38:08.004Z,3.70
2019-05-03T07:40:40.974Z,1.55
2019-05-03T07:43:14.855Z,2.35
2019-05-03T07:45:47.307Z,2.45
2019-05-03T07:48:19.990Z,2.15
2019-05-03T07:50:54.537Z,1.37
2019-05-03T07:53:26.969Z,2.45
2019-05-03T07:56:27.385Z,1.70
2019-05-03T07:59:04.192Z,1.40
2019-05-03T08:01:41.242Z,3.42
2019-05-03T08:04:15.391Z,2.35
2019-05-03T08:06:48.251Z,2.00
2019-05-03T08:09:21.191Z,2.15
2019-05-03T08:11:54.692Z,2.83
2019-05-03T08:14:31.796Z,2.25
2019-05-03T08:17:05.406Z,1.15
2019-05-03T08:19:38.016Z,1.92
2019-05-03T08:22:11.290Z,1.90
2019-05-03T08:24:44.851Z,1.25
2019-05-03T08:27:17.351Z,1.17
2019-05-03T08:29:49.877Z,2.83
2019-05-03T08:32:39.439Z,1.27
2019-05-03T08:35:35.565Z,1.35
2019-05-03T08:38:08.610Z,2.33
2019-05-03T08:40:47.536Z,1.80
2019-05-03T08:43:20.301Z,3.05
2019-05-03T08:45:55.250Z,1.35
2019-05-03T08:48:27.573Z,1.12
2019-05-03T08:51:00.316Z,2.83
2019-05-03T08:53:35.594Z,1.90
2019-05-03T08:56:07.805Z,0.90
2019-05-03T08:58:40.353Z,2.67
2019-05-03T09:01:14.788Z,2.42
2019-05-03T09:03:47.479Z,1.65
2019-05-03T09:06:20.349Z,1.25
2019-05-03T09:08:56.855Z,3.90
2019-05-03T09:11:34.057Z,2.62
2019-05-03T09:14:05.027Z,1.27
2019-05-03T09:16:37.560Z,1.87
2019-05-03T09:19:10.280Z,1.52
2019-05-03T09:21:42.997Z,2.55
2019-05-03T09:24:15.574Z,1.40
2019-05-03T09:26:48.176Z,1.15
2019-05-03T09:29:20.602Z,2.33
2019-05-03T09:31:55.288Z,2.17
2019-05-03T09:34:27.222Z,1.57
2019-05-03T09:37:00.008Z,1.25
2019-05-03T09:39:32.683Z,1.25
2019-05-03T09:42:05.328Z,2.42
2019-05-03T09:44:37.875Z,3.35
2019-05-03T09:47:10.749Z,0.93
2019-05-03T09:49:45.206Z,1.72
2019-05-03T09:52:18.259Z,1.27
2019-05-03T09:54:54.648Z,1.02
2019-05-03T09:57:26.813Z,1.92
2019-05-03T10:00:00.257Z,1.45
2019-05-03T10:02:34.997Z,0.88
2019-05-03T10:05:07.713Z,1.05
2019-05-03T10:07:41.339Z,1.22
2019-05-03T10:10:15.417Z,1.50
2019-05-03T10:12:48.391Z,2.67
2019-05-03T10:15:44.992Z,1.00
2019-05-03T10:18:17.865Z,1.00
2019-05-03T10:20:50.835Z,1.55
2019-05-03T10:23:44.931Z,0.70
2019-05-03T10:26:17.002Z,1.67
2019-05-03T10:28:49.527Z,0.88
2019-05-03T10:31:25.844Z,0.62
2019-05-03T10:34:05.771Z,0.78
2019-05-03T10:36:38.186Z,1.07
2019-05-03T10:39:11.231Z,0.40
2019-05-03T10:41:45.320Z,1.30
2019-05-03T10:44:18.129Z,1.35
2019-05-03T10:46:50.612Z,1.22
2019-05-03T10:49:24.495Z,1.00
2019-05-03T10:52:01.933Z,2.10
2019-05-03T10:54:35.862Z,1.10
2019-05-03T10:57:15.775Z,1.02
2019-05-03T10:59:48.376Z,1.17
2019-05-03T11:02:34.942Z,1.40
2019-05-03T11:05:08.088Z,1.75
2019-05-03T11:07:40.833Z,1.02
2019-05-03T11:10:14.717Z,0.90
2019-05-03T11:12:47.450Z,1.90
2019-05-03T11:15:20.258Z,1.95
2019-05-03T11:17:54.798Z,2.62
2019-05-03T11:20:45.299Z,3.50
2019-05-03T11:23:18.643Z,2.27
2019-05-03T11:25:51.249Z,1.57
2019-05-03T11:28:26.486Z,1.22
2019-05-03T11:31:02.444Z,1.32
2019-05-03T11:33:37.756Z,1.15
2019-05-03T11:36:31.856Z,2.12
2019-05-03T11:39:05.631Z,2.42
2019-05-03T11:41:40.433Z,2.22
2019-05-03T11:44:29.961Z,3.00
2019-05-03T11:47:02.697Z,1.65
2019-05-03T11:49:35.610Z,1.90
2019-05-03T11:52:08.864Z,1.50
2019-05-03T11:54:41.894Z,2.60
2019-05-03T11:57:21.456Z,1.65
2019-05-03T11:59:54.827Z,1.00
2019-05-03T12:02:44.904Z,1.42
2019-05-03T12:05:24.497Z,2.22
2019-05-03T12:07:57.672Z,2.15
2019-05-03T12:10:46.996Z,1.20
2019-05-03T12:13:13.033Z,1.65
2019-05-03T12:15:46.008Z,3.58
2019-05-03T12:18:19.275Z,1.60
2019-05-03T12:20:52.601Z,1.77
2019-05-03T12:23:26.358Z,1.27
2019-05-03T12:26:00.610Z,1.77
2019-05-03T12:28:35.247Z,0.68
2019-05-03T12:31:08.685Z,2.60
2019-05-03T12:33:41.467Z,4.17
2019-05-03T12:36:15.531Z,2.08
2019-05-03T12:38:49.003Z,2.02
2019-05-03T12:41:21.586Z,1.10
2019-05-03T12:43:55.159Z,1.32
2019-05-03T12:46:27.948Z,0.78
2019-05-03T12:49:00.833Z,3.25
2019-05-03T12:51:34.533Z,1.45
2019-05-03T12:54:07.439Z,2.27
2019-05-03T12:56:39.920Z,2.22
2019-05-03T12:59:31.224Z,1.07
2019-05-03T13:02:15.370Z,2.22
2019-05-03T13:04:48.267Z,2.45
2019-05-03T13:07:32.089Z,2.17
2019-05-03T13:10:05.263Z,1.45
2019-05-03T13:12:49.742Z,1.17
2019-05-03T13:15:14.443Z,1.67
2019-05-03T13:17:46.906Z,0.68
2019-05-03T13:20:19.920Z,1.12
2019-05-03T13:22:52.846Z,0.72
2019-05-03T13:25:25.918Z,1.30
2019-05-03T13:27:58.555Z,0.70
2019-05-03T13:30:31.146Z,0.75
2019-05-03T13:33:05.794Z,0.62
2019-05-03T13:35:38.501Z,1.60
2019-05-03T13:38:16.897Z,1.02
2019-05-03T13:40:50.968Z,1.25
2019-05-03T13:43:23.467Z,0.50
2019-05-03T13:45:57.987Z,1.05
2019-05-03T13:48:41.659Z,1.05
2019-05-03T13:51:05.236Z,2.02
2019-05-03T13:53:38.303Z,1.12
2019-05-03T13:56:11.131Z,0.78
2019-05-03T13:58:44.604Z,0.40
2019-05-03T14:01:18.079Z,0.70
2019-05-03T14:03:50.929Z,0.50
2019-05-03T14:06:24.604Z,1.57
2019-05-03T14:08:57.444Z,0.60
2019-05-03T14:11:30.073Z,0.98
2019-05-03T14:14:04.708Z,0.50
2019-05-03T14:16:37.538Z,1.15
2019-05-03T14:19:15.483Z,0.50
2019-05-03T14:21:54.644Z,0.95
2019-05-03T14:24:27.059Z,0.95
2019-05-03T14:27:00.580Z,1.10
2019-05-03T14:29:34.753Z,0.53
2019-05-03T14:32:07.572Z,0.33
2019-05-03T14:34:40.038Z,0.35
2019-05-03T14:37:13.017Z,0.80
2019-05-03T14:39:46.912Z,0.40
2019-05-03T14:42:19.369Z,0.62
2019-05-03T14:44:51.849Z,0.90
2019-05-03T14:47:25.244Z,0.75
2019-05-03T14:49:57.961Z,1.20
2019-05-03T14:52:30.312Z,0.55
2019-05-03T14:55:10.378Z,0.82
2019-05-03T14:57:48.364Z,1.00
2019-05-03T15:00:34.600Z,1.75
2019-05-03T15:03:09.647Z,0.62
2019-05-03T15:05:43.718Z,0.95
2019-05-03T15:08:16.482Z,0.88
2019-05-03T15:10:49.752Z,1.02
2019-05-03T15:13:22.378Z,0.70
2019-05-03T15:15:55.441Z,1.65
2019-05-03T15:18:28.352Z,0.40
2019-05-03T15:21:02.163Z,0.88
2019-05-03T15:23:35.374Z,0.40
2019-05-03T15:26:08.422Z,0.75
2019-05-03T15:28:41.186Z,2.35
2019-05-03T15:31:13.601Z,0.78
2019-05-03T15:33:47.920Z,0.30
2019-05-03T15:36:21.340Z,0.60
2019-05-03T15:38:55.227Z,1.00
2019-05-03T15:41:28.405Z,1.30
2019-05-03T15:44:14.628Z,0.88
2019-05-03T15:46:52.047Z,0.30
2019-05-03T15:49:27.531Z,0.60
2019-05-03T15:51:59.635Z,1.12
2019-05-03T15:54:32.691Z,0.72
2019-05-03T15:57:05.432Z,0.85
2019-05-03T15:59:37.945Z,0.78
2019-05-03T16:02:10.826Z,0.45
2019-05-03T16:04:44.804Z,1.17
2019-05-03T16:07:17.767Z,1.50
2019-05-03T16:09:50.516Z,1.60
2019-05-03T16:12:23.126Z,1.82
2019-05-03T16:14:56.015Z,1.05
2019-05-03T16:17:29.310Z,0.47
2019-05-03T16:20:02.272Z,0.60
2019-05-03T16:22:34.832Z,0.23
2019-05-03T16:25:10.252Z,0.33
2019-05-03T16:28:01.634Z,0.88
2019-05-03T16:30:48.671Z,1.02
2019-05-03T16:33:27.269Z,0.65
2019-05-03T16:35:55.787Z,0.40
2019-05-03T16:38:28.335Z,0.50
2019-05-03T16:41:01.191Z,0.50
2019-05-03T16:43:34.861Z,1.10
2019-05-03T16:46:07.569Z,0.75
2019-05-03T16:48:40.163Z,1.37
2019-05-03T16:51:15.181Z,0.90
2019-05-03T16:53:47.506Z,0.30
2019-05-03T16:56:20.152Z,0.30
2019-05-03T16:58:52.859Z,0.17
2019-05-03T17:01:25.263Z,0.42
2019-05-03T17:04:20.556Z,0.70
2019-05-03T17:07:05.729Z,0.30
2019-05-03T17:09:51.370Z,0.30
2019-05-03T17:12:27.439Z,0.60
2019-05-03T17:15:00.166Z,0.85
2019-05-03T17:17:34.487Z,1.12
2019-05-03T17:20:10.738Z,1.02
2019-05-03T17:22:45.032Z,1.02
2019-05-03T17:25:20.910Z,1.32
2019-05-03T17:27:54.302Z,2.75
2019-05-03T17:30:33.798Z,1.27
2019-05-03T17:33:01.291Z,0.68
2019-05-03T17:35:34.634Z,1.77
2019-05-03T17:38:07.377Z,0.82
2019-05-03T17:41:10.928Z,0.80
2019-05-03T17:43:48.272Z,1.60
2019-05-03T17:46:20.745Z,0.60
2019-05-03T17:48:54.742Z,0.62
2019-05-03T17:51:45.611Z,0.40
2019-05-03T17:54:35.725Z,0.42
2019-05-03T17:57:20.579Z,1.00
2019-05-03T17:59:58.562Z,0.40
2019-05-03T18:02:38.790Z,0.65
2019-05-03T18:05:19.343Z,0.30
2019-05-03T18:08:26.158Z,1.10
2019-05-03T18:11:06.321Z,0.47
2019-05-03T18:13:39.130Z,0.82
2019-05-03T18:16:11.748Z,0.57
2019-05-03T18:18:45.444Z,0.30
2019-05-03T18:21:18.357Z,0.35
2019-05-03T18:23:50.898Z,0.50
2019-05-03T18:26:25.550Z,0.30
2019-05-03T18:29:02.111Z,0.68
2019-05-03T18:31:35.070Z,0.67
2019-05-03T18:34:19.091Z,0.40
2019-05-03T18:36:45.032Z,0.88
2019-05-03T18:39:17.715Z,0.30
2019-05-03T18:41:50.685Z,0.78
2019-05-03T18:44:39.191Z,0.65
2019-05-03T18:47:16.129Z,0.40
2019-05-03T18:49:48.895Z,0.60
2019-05-03T18:52:21.922Z,0.60
2019-05-03T18:54:55.212Z,1.45
2019-05-03T18:57:27.994Z,0.40
2019-05-03T19:00:00.819Z,0.53
2019-05-03T19:02:33.627Z,0.30
2019-05-03T19:05:08.078Z,0.68
2019-05-03T19:07:54.624Z,0.20
2019-05-03T19:10:33.227Z,0.43
2019-05-03T19:13:19.716Z,0.30
2019-05-03T19:15:52.579Z,1.12
2019-05-03T19:18:36.290Z,0.53
2019-05-03T19:21:09.199Z,0.30
2019-05-03T19:23:44.671Z,0.70
2019-05-03T19:26:17.192Z,0.60
2019-05-03T19:28:49.987Z,0.77
2019-05-03T19:31:25.003Z,0.50
2019-05-03T19:33:57.480Z,0.40
2019-05-03T19:36:30.019Z,0.50
2019-05-03T19:39:02.466Z,0.50
2019-05-03T19:41:35.488Z,1.13
2019-05-03T19:44:08.943Z,0.70
2019-05-03T19:46:42.134Z,0.72
2019-05-03T19:49:14.552Z,0.47
2019-05-03T19:51:47.122Z,0.40
2019-05-03T19:54:19.900Z,0.53
2019-05-03T19:56:52.257Z,0.30
2019-05-03T19:59:41.969Z,0.57
2019-05-03T20:02:27.766Z,0.40
2019-05-03T20:05:18.931Z,0.30
2019-05-03T20:08:22.294Z,0.33
2019-05-03T20:11:14.884Z,0.33
2019-05-03T20:13:48.812Z,0.50
2019-05-03T20:16:21.505Z,0.57
2019-05-03T20:18:55.564Z,0.50
2019-05-03T20:21:28.649Z,0.40
2019-05-03T20:24:02.434Z,0.40
2019-05-03T20:26:35.367Z,0.33
2019-05-03T20:29:07.895Z,1.17
2019-05-03T20:31:40.290Z,0.30
2019-05-03T20:34:12.756Z,0.50
2019-05-03T20:36:45.433Z,0.37
2019-05-03T20:39:18.340Z,0.33
2019-05-03T20:41:50.818Z,0.17
2019-05-03T20:44:42.265Z,0.67
2019-05-03T20:47:19.626Z,0.30
2019-05-03T20:50:09.508Z,0.28
2019-05-03T20:52:41.913Z,1.00
2019-05-03T20:55:15.732Z,0.20
2019-05-03T20:57:48.552Z,0.30
2019-05-03T21:00:25.628Z,0.23
2019-05-03T21:02:58.159Z,0.73
2019-05-03T21:05:33.161Z,0.53
2019-05-03T21:08:06.749Z,0.73
2019-05-03T21:10:39.325Z,0.70
2019-05-03T21:13:11.881Z,0.40
2019-05-03T21:16:06.102Z,0.63
2019-05-03T21:18:51.435Z,0.30
2019-05-03T21:21:45.656Z,0.47
2019-05-03T21:24:35.566Z,0.60
2019-05-03T21:27:08.300Z,0.60
2019-05-03T21:29:52.084Z,0.80
2019-05-03T21:32:25.218Z,0.83
2019-05-03T21:34:57.730Z,0.43
2019-05-03T21:37:30.489Z,0.60
2019-05-03T21:40:05.034Z,1.63
2019-05-03T21:42:37.756Z,0.70
2019-05-03T21:45:11.956Z,0.83
2019-05-03T21:48:09.922Z,0.50
2019-05-03T21:50:44.615Z,0.73
2019-05-03T21:53:21.749Z,0.60
2019-05-03T21:55:54.173Z,0.40
2019-05-03T21:58:26.652Z,0.20
2019-05-03T22:01:05.065Z,1.07
2019-05-03T22:03:37.869Z,0.60
2019-05-03T22:06:10.328Z,0.80
2019-05-03T22:08:45.351Z,0.43
2019-05-03T22:11:17.365Z,0.83
2019-05-03T22:13:51.737Z,0.83
2019-05-03T22:16:41.187Z,1.17
2019-05-03T22:19:16.349Z,0.40
2019-05-03T22:21:55.277Z,0.40
2019-05-03T22:24:33.703Z,0.67
2019-05-03T22:27:15.358Z,0.90
2019-05-03T22:29:47.989Z,0.80
2019-05-03T22:32:20.389Z,0.50
2019-05-03T22:34:52.888Z,0.33
2019-05-03T22:37:25.373Z,0.40
2019-05-03T22:39:57.946Z,0.70
2019-05-03T22:42:30.393Z,0.50
2019-05-03T22:45:04.671Z,0.20
2019-05-03T22:47:37.916Z,0.30
2019-05-03T22:50:10.641Z,0.30
2019-05-03T22:52:42.980Z,0.30
2019-05-03T22:55:16.665Z,0.30
2019-05-03T22:57:49.429Z,0.20
2019-05-03T23:00:22.477Z,0.50
2019-05-03T23:02:54.912Z,0.50
2019-05-03T23:05:27.539Z,0.20
2019-05-03T23:08:00.210Z,0.40
2019-05-03T23:10:34.772Z,0.53
2019-05-03T23:13:07.404Z,0.20
2019-05-03T23:15:39.913Z,0.73
2019-05-03T23:18:12.473Z,0.17
2019-05-03T23:20:55.549Z,0.13
2019-05-03T23:23:45.573Z,0.30
2019-05-03T23:26:18.246Z,0.40
2019-05-03T23:28:50.686Z,0.53
2019-05-03T23:31:25.108Z,0.67
2019-05-03T23:33:58.000Z,0.40
2019-05-03T23:36:33.463Z,0.17
2019-05-03T23:39:05.323Z,0.63
2019-05-03T23:41:37.589Z,0.33
2019-05-03T23:44:10.163Z,0.70
2019-05-03T23:46:54.582Z,0.10
2019-05-03T23:49:27.334Z,0.20
2019-05-03T23:52:04.479Z,0.30
2019-05-03T23:54:37.092Z,0.30
2019-05-03T23:57:10.064Z,0.53
2019-05-03T23:59:44.859Z,0.20
